Ryoho Maru No.2 — JD2964 — position and weather

sailwx.info

Track history (hours):
 
Tides and Currents Weather Stations Pressure Air Temp Water Temp Dewpoint Dewpoint Depression Visibility Wind Speed Wind Dir Waves Ship Positions

Ryoho Maru No.2

Last reported at 2016-Aug-25 23:23 UTC. Time now 2016-Aug-27 15:10 UTC.
Position N 36°60' E 141°15'.

Length 57 m; draft 4 m.

Type: Tanker. MMSI: 431001062.

Date/timePositionNaut miles runAvg speedWind from/ knotsBaromVisibWave heightAir tempDewpointWater temp
2016-Aug-25 23:23N 36°60' E 141°15'9 9.8
2016-Aug-25 22:26N 36°50' E 141°12'9 9.0
2016-Aug-25 21:28N 36°42' E 141°10'9 9.4
2016-Aug-25 20:33N 36°33' E 141°08'38 9.4
2016-Aug-25 16:30N 35°56' E 140°58'9 9.9
2016-Aug-25 15:33N 35°47' E 140°56'9 9.3
2016-Aug-25 14:33N 35°38' E 140°52'9 9.2
2016-Aug-25 13:33N 35°31' E 140°45'9 9.4
2016-Aug-25 12:33N 35°23' E 140°38'10 9.7
2016-Aug-25 11:33N 35°16' E 140°30'20 9.4
2016-Aug-25 09:27N 35°03' E 140°12'910.1
2016-Aug-25 08:32N 34°57' E 140°03'15 7.6
2016-Aug-25 06:33N 34°56' E 139°45'19 9.6
2016-Aug-25 04:34N 35°16' E 139°46'10 9.5
2016-Aug-25 03:34N 35°25' E 139°43'7 7.0
2016-Aug-25 02:34N 35°32' E 139°45'0 0.0
2016-Aug-25 01:33N 35°32' E 139°45'0 0.0
2016-Aug-25 00:30N 35°32' E 139°45'3 3.0
2016-Aug-24 23:33N 35°30' E 139°48'1 1.2
2016-Aug-24 22:32N 35°29' E 139°49'0 0.0
2016-Aug-24 21:32N 35°29' E 139°49'0 0.0
2016-Aug-24 20:32N 35°29' E 139°49'0 0.0
2016-Aug-24 19:32N 35°29' E 139°49'0 0.0
2016-Aug-24 18:32N 35°29' E 139°49'0 0.0
2016-Aug-24 17:32N 35°29' E 139°49'0 0.0
2016-Aug-24 16:32N 35°29' E 139°49'0 0.0
2016-Aug-24 15:32N 35°29' E 139°49'0 0.0
2016-Aug-24 14:32N 35°29' E 139°49'0 0.0
2016-Aug-24 13:29N 35°29' E 139°49'0 0.0
2016-Aug-24 12:32N 35°29' E 139°49'0 0.1
2016-Aug-24 11:32N 35°30' E 139°49'0 0.0
2016-Aug-24 10:32N 35°30' E 139°49'0 0.0
2016-Aug-24 09:32N 35°30' E 139°49'0 0.0
2016-Aug-24 08:32N 35°30' E 139°49'0 0.1
2016-Aug-24 07:32N 35°30' E 139°49'0 0.0
2016-Aug-24 06:32N 35°29' E 139°49'0 0.0
2016-Aug-24 04:32N 35°29' E 139°49'2 2.0
2016-Aug-24 03:33N 35°30' E 139°52'8 7.5
2016-Aug-24 02:31N 35°28' E 140°01'0 0.0
2016-Aug-24 01:31N 35°28' E 140°01'0 0.0
2016-Aug-24 00:25N 35°28' E 140°01'0 0.0
2016-Aug-23 23:25N 35°28' E 140°01'0 0.0
2016-Aug-23 22:31N 35°28' E 140°01'0 0.0
2016-Aug-23 21:33N 35°28' E 140°01'1 1.3
2016-Aug-23 20:32N 35°29' E 139°60'0 0.0
2016-Aug-23 19:32N 35°29' E 139°60'0 0.1
2016-Aug-23 18:32N 35°29' E 139°60'0 0.0
2016-Aug-23 17:32N 35°29' E 139°60'0 0.0
2016-Aug-23 16:32N 35°29' E 139°60'0 0.0
2016-Aug-23 15:32N 35°29' E 139°60'0 0.0
2016-Aug-23 14:26N 35°29' E 139°60'0 0.0
2016-Aug-23 13:32N 35°29' E 139°60'0 0.0
2016-Aug-23 12:26N 35°29' E 139°60'0 0.0
2016-Aug-23 11:32N 35°29' E 139°60'0 0.0
2016-Aug-23 10:29N 35°29' E 139°60'0 0.0
2016-Aug-23 09:32N 35°29' E 139°60'0 0.0
2016-Aug-23 08:32N 35°29' E 139°60'0 0.0
2016-Aug-23 07:32N 35°29' E 139°60'0 0.0
2016-Aug-23 06:32N 35°29' E 139°60'0 0.0
2016-Aug-23 05:32N 35°29' E 139°60'0 0.0
2016-Aug-23 04:32N 35°29' E 139°60'0 0.0
2016-Aug-23 03:32N 35°29' E 139°60'0 0.0
2016-Aug-23 02:32N 35°29' E 139°60'0 0.0
2016-Aug-23 01:32N 35°29' E 139°60'0 0.0
2016-Aug-23 00:32N 35°29' E 139°60'0 0.1
2016-Aug-22 23:32N 35°29' E 140°00'0 0.0
2016-Aug-22 22:26N 35°29' E 140°00'0 0.0
2016-Aug-22 21:32N 35°29' E 140°00'0 0.0
2016-Aug-22 20:32N 35°29' E 140°00'0 0.1
2016-Aug-22 19:32N 35°29' E 139°60'0 0.0
2016-Aug-22 18:26N 35°29' E 139°60'0 0.0
2016-Aug-22 17:20N 35°29' E 139°60'0 0.1
2016-Aug-22 16:32N 35°29' E 140°00'0 0.0
2016-Aug-22 15:32N 35°29' E 140°00'0 0.0
2016-Aug-22 14:14N 35°29' E 139°60'0 0.0
2016-Aug-22 13:29N 35°29' E 139°60'0 0.0
2016-Aug-22 12:18N 35°29' E 139°60'0 0.0
2016-Aug-22 11:33N 35°29' E 139°60'0 0.0
2016-Aug-22 10:09N 35°29' E 139°60'0 0.0
2016-Aug-22 09:33N 35°29' E 139°60'0 0.0
2016-Aug-22 08:29N 35°29' E 140°00'0 0.0
2016-Aug-22 07:23N 35°29' E 139°60'0 0.0
2016-Aug-22 06:33N 35°29' E 139°60'0 0.0
2016-Aug-22 05:30N 35°29' E 139°60'0 0.1
2016-Aug-22 04:33N 35°29' E 139°60'0 0.0
2016-Aug-22 03:32N 35°29' E 139°60'0 0.1
2016-Aug-22 02:31N 35°29' E 139°60'0 0.0
2016-Aug-22 01:28N 35°29' E 139°60'0 0.0
2016-Aug-22 00:33N 35°29' E 139°60'0 0.0
2016-Aug-21 23:30N 35°29' E 139°60'0 0.0
2016-Aug-21 22:33N 35°29' E 139°60'0 0.0
2016-Aug-21 21:32N 35°29' E 139°60'0 0.0
2016-Aug-21 20:32N 35°29' E 139°60'0 0.0
2016-Aug-21 19:31N 35°29' E 139°60'0 0.1
2016-Aug-21 18:32N 35°29' E 139°60'0 0.0
2016-Aug-21 17:33N 35°29' E 139°60'0 0.0
2016-Aug-21 16:24N 35°29' E 139°60'0 0.0
2016-Aug-21 15:32N 35°29' E 139°60'0 0.0
2016-Aug-21 14:32N 35°29' E 139°60'0 0.0
2016-Aug-21 13:33N 35°29' E 139°60'0 0.0
2016-Aug-21 12:27N 35°29' E 139°60'0 0.1
2016-Aug-21 11:30N 35°29' E 139°60'0 0.1
2016-Aug-21 10:31N 35°29' E 139°60'0 0.0
2016-Aug-21 09:33N 35°29' E 139°60'0 0.0
2016-Aug-21 08:16N 35°29' E 139°60'0 0.1
2016-Aug-21 07:28N 35°29' E 139°60'0 0.0
2016-Aug-21 06:31N 35°29' E 139°60'0 0.0
2016-Aug-21 05:28N 35°29' E 139°60'0 0.0
2016-Aug-21 04:28N 35°29' E 139°60'0 0.0
2016-Aug-21 03:28N 35°29' E 139°60'0 0.0
2016-Aug-21 02:28N 35°29' E 139°60'0 0.0
2016-Aug-21 01:28N 35°29' E 139°60'0 0.0
2016-Aug-21 00:28N 35°29' E 139°60'0 0.0
2016-Aug-20 23:28N 35°29' E 139°60'0 0.0
2016-Aug-20 22:28N 35°29' E 139°60'0 0.1
2016-Aug-20 21:28N 35°29' E 139°60'0 0.1
2016-Aug-20 20:28N 35°29' E 139°60'4 4.0
2016-Aug-20 19:34N 35°30' E 139°56'1110.9
2016-Aug-20 18:34N 35°22' E 139°45'1110.7
2016-Aug-20 17:33N 35°12' E 139°47'1110.9
2016-Aug-20 16:33N 35°01' E 139°44'1010.2
2016-Aug-20 15:33N 34°52' E 139°51'1111.0
2016-Aug-20 14:33N 34°56' E 140°03'1211.0
2016-Aug-20 13:29N 35°03' E 140°15'1110.5
2016-Aug-20 12:25N 35°10' E 140°25'1111.5
2016-Aug-20 11:30N 35°19' E 140°33'1010.2
2016-Aug-20 10:33N 35°26' E 140°41'1310.1
2016-Aug-20 09:19N 35°36' E 140°50'  
Track history (hours):
 
Tides and Currents Weather Stations Pressure Air Temp Water Temp Dewpoint Dewpoint Depression Visibility Wind Speed Wind Dir Waves Ship Positions

Ryoho Maru No.2

Last reported at 2016-Aug-25 23:23 UTC. Time now 2016-Aug-27 15:10 UTC.
Position N 36°60' E 141°15'.

Length 57 m; draft 4 m.

Type: Tanker. MMSI: 431001062.

Date/timePositionNaut miles runAvg speedWind from/ knotsBaromVisibWave heightAir tempDewpointWater temp
2016-Aug-25 23:23N 36°60' E 141°15'9 9.8
2016-Aug-25 22:26N 36°50' E 141°12'9 9.0
2016-Aug-25 21:28N 36°42' E 141°10'9 9.4
2016-Aug-25 20:33N 36°33' E 141°08'38 9.4
2016-Aug-25 16:30N 35°56' E 140°58'9 9.9
2016-Aug-25 15:33N 35°47' E 140°56'9 9.3
2016-Aug-25 14:33N 35°38' E 140°52'9 9.2
2016-Aug-25 13:33N 35°31' E 140°45'9 9.4
2016-Aug-25 12:33N 35°23' E 140°38'10 9.7
2016-Aug-25 11:33N 35°16' E 140°30'20 9.4
2016-Aug-25 09:27N 35°03' E 140°12'910.1
2016-Aug-25 08:32N 34°57' E 140°03'15 7.6
2016-Aug-25 06:33N 34°56' E 139°45'19 9.6
2016-Aug-25 04:34N 35°16' E 139°46'10 9.5
2016-Aug-25 03:34N 35°25' E 139°43'7 7.0
2016-Aug-25 02:34N 35°32' E 139°45'0 0.0
2016-Aug-25 01:33N 35°32' E 139°45'0 0.0
2016-Aug-25 00:30N 35°32' E 139°45'3 3.0
2016-Aug-24 23:33N 35°30' E 139°48'1 1.2
2016-Aug-24 22:32N 35°29' E 139°49'0 0.0
2016-Aug-24 21:32N 35°29' E 139°49'0 0.0
2016-Aug-24 20:32N 35°29' E 139°49'0 0.0
2016-Aug-24 19:32N 35°29' E 139°49'0 0.0
2016-Aug-24 18:32N 35°29' E 139°49'0 0.0
2016-Aug-24 17:32N 35°29' E 139°49'0 0.0
2016-Aug-24 16:32N 35°29' E 139°49'0 0.0
2016-Aug-24 15:32N 35°29' E 139°49'0 0.0
2016-Aug-24 14:32N 35°29' E 139°49'0 0.0
2016-Aug-24 13:29N 35°29' E 139°49'0 0.0
2016-Aug-24 12:32N 35°29' E 139°49'0 0.1
2016-Aug-24 11:32N 35°30' E 139°49'0 0.0
2016-Aug-24 10:32N 35°30' E 139°49'0 0.0
2016-Aug-24 09:32N 35°30' E 139°49'0 0.0
2016-Aug-24 08:32N 35°30' E 139°49'0 0.1
2016-Aug-24 07:32N 35°30' E 139°49'0 0.0
2016-Aug-24 06:32N 35°29' E 139°49'0 0.0
2016-Aug-24 04:32N 35°29' E 139°49'2 2.0
2016-Aug-24 03:33N 35°30' E 139°52'8 7.5
2016-Aug-24 02:31N 35°28' E 140°01'0 0.0
2016-Aug-24 01:31N 35°28' E 140°01'0 0.0
2016-Aug-24 00:25N 35°28' E 140°01'0 0.0
2016-Aug-23 23:25N 35°28' E 140°01'0 0.0
2016-Aug-23 22:31N 35°28' E 140°01'0 0.0
2016-Aug-23 21:33N 35°28' E 140°01'1 1.3
2016-Aug-23 20:32N 35°29' E 139°60'0 0.0
2016-Aug-23 19:32N 35°29' E 139°60'0 0.1
2016-Aug-23 18:32N 35°29' E 139°60'0 0.0
2016-Aug-23 17:32N 35°29' E 139°60'0 0.0
2016-Aug-23 16:32N 35°29' E 139°60'0 0.0
2016-Aug-23 15:32N 35°29' E 139°60'0 0.0
2016-Aug-23 14:26N 35°29' E 139°60'0 0.0
2016-Aug-23 13:32N 35°29' E 139°60'0 0.0
2016-Aug-23 12:26N 35°29' E 139°60'0 0.0
2016-Aug-23 11:32N 35°29' E 139°60'0 0.0
2016-Aug-23 10:29N 35°29' E 139°60'0 0.0
2016-Aug-23 09:32N 35°29' E 139°60'0 0.0
2016-Aug-23 08:32N 35°29' E 139°60'0 0.0
2016-Aug-23 07:32N 35°29' E 139°60'0 0.0
2016-Aug-23 06:32N 35°29' E 139°60'0 0.0
2016-Aug-23 05:32N 35°29' E 139°60'0 0.0
2016-Aug-23 04:32N 35°29' E 139°60'0 0.0
2016-Aug-23 03:32N 35°29' E 139°60'0 0.0
2016-Aug-23 02:32N 35°29' E 139°60'0 0.0
2016-Aug-23 01:32N 35°29' E 139°60'0 0.0
2016-Aug-23 00:32N 35°29' E 139°60'0 0.1
2016-Aug-22 23:32N 35°29' E 140°00'0 0.0
2016-Aug-22 22:26N 35°29' E 140°00'0 0.0
2016-Aug-22 21:32N 35°29' E 140°00'0 0.0
2016-Aug-22 20:32N 35°29' E 140°00'0 0.1
2016-Aug-22 19:32N 35°29' E 139°60'0 0.0
2016-Aug-22 18:26N 35°29' E 139°60'0 0.0
2016-Aug-22 17:20N 35°29' E 139°60'0 0.1
2016-Aug-22 16:32N 35°29' E 140°00'0 0.0
2016-Aug-22 15:32N 35°29' E 140°00'0 0.0
2016-Aug-22 14:14N 35°29' E 139°60'0 0.0
2016-Aug-22 13:29N 35°29' E 139°60'0 0.0
2016-Aug-22 12:18N 35°29' E 139°60'0 0.0
2016-Aug-22 11:33N 35°29' E 139°60'0 0.0
2016-Aug-22 10:09N 35°29' E 139°60'0 0.0
2016-Aug-22 09:33N 35°29' E 139°60'0 0.0
2016-Aug-22 08:29N 35°29' E 140°00'0 0.0
2016-Aug-22 07:23N 35°29' E 139°60'0 0.0
2016-Aug-22 06:33N 35°29' E 139°60'0 0.0
2016-Aug-22 05:30N 35°29' E 139°60'0 0.1
2016-Aug-22 04:33N 35°29' E 139°60'0 0.0
2016-Aug-22 03:32N 35°29' E 139°60'0 0.1
2016-Aug-22 02:31N 35°29' E 139°60'0 0.0
2016-Aug-22 01:28N 35°29' E 139°60'0 0.0
2016-Aug-22 00:33N 35°29' E 139°60'0 0.0
2016-Aug-21 23:30N 35°29' E 139°60'0 0.0
2016-Aug-21 22:33N 35°29' E 139°60'0 0.0
2016-Aug-21 21:32N 35°29' E 139°60'0 0.0
2016-Aug-21 20:32N 35°29' E 139°60'0 0.0
2016-Aug-21 19:31N 35°29' E 139°60'0 0.1
2016-Aug-21 18:32N 35°29' E 139°60'0 0.0
2016-Aug-21 17:33N 35°29' E 139°60'0 0.0
2016-Aug-21 16:24N 35°29' E 139°60'0 0.0
2016-Aug-21 15:32N 35°29' E 139°60'0 0.0
2016-Aug-21 14:32N 35°29' E 139°60'0 0.0
2016-Aug-21 13:33N 35°29' E 139°60'0 0.0
2016-Aug-21 12:27N 35°29' E 139°60'0 0.1
2016-Aug-21 11:30N 35°29' E 139°60'0 0.1
2016-Aug-21 10:31N 35°29' E 139°60'0 0.0
2016-Aug-21 09:33N 35°29' E 139°60'0 0.0
2016-Aug-21 08:16N 35°29' E 139°60'0 0.1
2016-Aug-21 07:28N 35°29' E 139°60'0 0.0
2016-Aug-21 06:31N 35°29' E 139°60'0 0.0
2016-Aug-21 05:28N 35°29' E 139°60'0 0.0
2016-Aug-21 04:28N 35°29' E 139°60'0 0.0
2016-Aug-21 03:28N 35°29' E 139°60'0 0.0
2016-Aug-21 02:28N 35°29' E 139°60'0 0.0
2016-Aug-21 01:28N 35°29' E 139°60'0 0.0
2016-Aug-21 00:28N 35°29' E 139°60'0 0.0
2016-Aug-20 23:28N 35°29' E 139°60'0 0.0
2016-Aug-20 22:28N 35°29' E 139°60'0 0.1
2016-Aug-20 21:28N 35°29' E 139°60'0 0.1
2016-Aug-20 20:28N 35°29' E 139°60'4 4.0
2016-Aug-20 19:34N 35°30' E 139°56'1110.9
2016-Aug-20 18:34N 35°22' E 139°45'1110.7
2016-Aug-20 17:33N 35°12' E 139°47'1110.9
2016-Aug-20 16:33N 35°01' E 139°44'1010.2
2016-Aug-20 15:33N 34°52' E 139°51'1111.0
2016-Aug-20 14:33N 34°56' E 140°03'1211.0
2016-Aug-20 13:29N 35°03' E 140°15'1110.5
2016-Aug-20 12:25N 35°10' E 140°25'1111.5
2016-Aug-20 11:30N 35°19' E 140°33'1010.2
2016-Aug-20 10:33N 35°26' E 140°41'1310.1
2016-Aug-20 09:19N 35°36' E 140°50'  

Dump ship's entire track history